sensor_id;sensor_type;location;lat;lon;timestamp;temperature;humidity
3288;DHT22;3260;52.438;13.502;2022-10-31T05:02:18;12.20;99.90
3288;DHT22;3260;52.438;13.502;2022-10-31T05:04:46;12.10;99.90
3288;DHT22;3260;52.438;13.502;2022-10-31T05:07:14;12.20;99.90
3288;DHT22;3260;52.438;13.502;2022-10-31T05:09:42;12.10;99.90
3288;DHT22;3260;52.438;13.502;2022-10-31T05:12:10;12.10;99.90
3288;DHT22;3260;52.438;13.502;2022-10-31T05:17:11;12.10;99.90
3288;DHT22;3260;52.438;13.502;2022-10-31T05:19:41;12.10;99.90
3288;DHT22;3260;52.438;13.502;2022-10-31T05:22:09;12.10;99.90
3288;DHT22;3260;52.438;13.502;2022-10-31T05:24:36;12.10;99.90
3288;DHT22;3260;52.438;13.502;2022-10-31T05:27:04;12.10;99.90
3288;DHT22;3260;52.438;13.502;2022-10-31T05:29:32;12.10;99.90
3288;DHT22;3260;52.438;13.502;2022-10-31T05:32:01;12.10;99.90
3288;DHT22;3260;52.438;13.502;2022-10-31T05:34:29;12.10;99.90
3288;DHT22;3260;52.438;13.502;2022-10-31T05:36:58;12.10;99.90
3288;DHT22;3260;52.438;13.502;2022-10-31T05:39:26;12.00;99.90
3288;DHT22;3260;52.438;13.502;2022-10-31T05:41:54;12.00;99.90
3288;DHT22;3260;52.438;13.502;2022-10-31T05:44:22;12.00;99.90
3288;DHT22;3260;52.438;13.502;2022-10-31T05:46:50;12.00;99.90
3288;DHT22;3260;52.438;13.502;2022-10-31T05:49:18;12.00;99.90
3288;DHT22;3260;52.438;13.502;2022-10-31T05:51:46;12.10;99.90
3288;DHT22;3260;52.438;13.502;2022-10-31T05:54:15;12.00;99.90
3288;DHT22;3260;52.438;13.502;2022-10-31T05:56:43;12.00;99.90
3288;DHT22;3260;52.438;13.502;2022-10-31T05:59:11;12.10;99.90
3288;DHT22;3260;52.438;13.502;2022-10-31T06:01:39;12.00;99.90
3288;DHT22;3260;52.438;13.502;2022-10-31T06:04:07;12.00;99.90
3288;DHT22;3260;52.438;13.502;2022-10-31T06:06:36;12.00;99.90
3288;DHT22;3260;52.438;13.502;2022-10-31T06:09:04;12.00;99.90
3288;DHT22;3260;52.438;13.502;2022-10-31T06:11:33;12.10;99.90
3288;DHT22;3260;52.438;13.502;2022-10-31T06:14:01;12.00;99.90
3288;DHT22;3260;52.438;13.502;2022-10-31T06:16:30;12.00;99.90
3288;DHT22;3260;52.438;13.502;2022-10-31T06:18:58;12.10;99.90
3288;DHT22;3260;52.438;13.502;2022-10-31T06:21:26;12.20;99.90
3288;DHT22;3260;52.438;13.502;2022-10-31T06:23:54;12.20;99.90
3288;DHT22;3260;52.438;13.502;2022-10-31T06:26:22;12.20;99.90
3288;DHT22;3260;52.438;13.502;2022-10-31T06:28:51;12.20;99.90
3288;DHT22;3260;52.438;13.502;2022-10-31T06:31:19;12.20;99.90
3288;DHT22;3260;52.438;13.502;2022-10-31T06:33:48;12.30;99.90
3288;DHT22;3260;52.438;13.502;2022-10-31T06:36:16;12.30;99.90
3288;DHT22;3260;52.438;13.502;2022-10-31T06:38:44;12.40;99.90
3288;DHT22;3260;52.438;13.502;2022-10-31T06:41:12;12.40;99.90
3288;DHT22;3260;52.438;13.502;2022-10-31T06:43:40;12.40;99.90
3288;DHT22;3260;52.438;13.502;2022-10-31T06:46:09;12.40;99.90
3288;DHT22;3260;52.438;13.502;2022-10-31T06:48:37;12.40;99.90
3288;DHT22;3260;52.438;13.502;2022-10-31T06:51:05;12.50;99.90
3288;DHT22;3260;52.438;13.502;2022-10-31T06:53:33;12.50;99.90
3288;DHT22;3260;52.438;13.502;2022-10-31T06:56:01;12.50;99.90
3288;DHT22;3260;52.438;13.502;2022-10-31T06:58:29;12.50;99.90
3288;DHT22;3260;52.438;13.502;2022-10-31T07:00:59;12.60;99.90
3288;DHT22;3260;52.438;13.502;2022-10-31T07:03:29;12.60;99.90
3288;DHT22;3260;52.438;13.502;2022-10-31T07:05:57;12.60;99.90
3288;DHT22;3260;52.438;13.502;2022-10-31T07:08:25;12.70;99.90
3288;DHT22;3260;52.438;13.502;2022-10-31T07:10:55;12.80;99.90
3288;DHT22;3260;52.438;13.502;2022-10-31T07:13:25;12.90;99.90
3288;DHT22;3260;52.438;13.502;2022-10-31T07:15:54;13.00;99.90
3288;DHT22;3260;52.438;13.502;2022-10-31T07:18:26;13.10;99.90
3288;DHT22;3260;52.438;13.502;2022-10-31T07:20:56;13.20;99.90
3288;DHT22;3260;52.438;13.502;2022-10-31T07:23:24;13.30;99.90
3288;DHT22;3260;52.438;13.502;2022-10-31T07:25:55;13.40;99.90
3288;DHT22;3260;52.438;13.502;2022-10-31T07:28:23;13.50;99.90
3288;DHT22;3260;52.438;13.502;2022-10-31T07:30:53;13.50;99.90
3288;DHT22;3260;52.438;13.502;2022-10-31T07:33:22;13.70;99.90
3288;DHT22;3260;52.438;13.502;2022-10-31T07:35:52;13.80;99.90
3288;DHT22;3260;52.438;13.502;2022-10-31T07:38:22;14.00;99.90
3288;DHT22;3260;52.438;13.502;2022-10-31T07:40:51;14.10;99.90
3288;DHT22;3260;52.438;13.502;2022-10-31T07:43:20;14.40;99.90
3288;DHT22;3260;52.438;13.502;2022-10-31T07:45:49;14.50;99.90
3288;DHT22;3260;52.438;13.502;2022-10-31T07:48:18;14.70;99.90
3288;DHT22;3260;52.438;13.502;2022-10-31T07:50:47;14.90;98.10
3288;DHT22;3260;52.438;13.502;2022-10-31T07:53:15;15.00;87.60
3288;DHT22;3260;52.438;13.502;2022-10-31T07:55:44;15.20;69.60
3288;DHT22;3260;52.438;13.502;2022-10-31T07:58:13;15.30;55.80
3288;DHT22;3260;52.438;13.502;2022-10-31T08:00:44;15.50;42.20
3288;DHT22;3260;52.438;13.502;2022-10-31T08:03:15;15.60;25.70
3288;DHT22;3260;52.438;13.502;2022-10-31T08:05:45;15.70;9.50
3288;DHT22;3260;52.438;13.502;2022-10-31T08:08:14;15.80;1.70
3288;DHT22;3260;52.438;13.502;2022-10-31T08:10:44;16.00;1.00
3288;DHT22;3260;52.438;13.502;2022-10-31T08:13:13;16.10;1.00
3288;DHT22;3260;52.438;13.502;2022-10-31T08:15:42;16.30;1.00
3288;DHT22;3260;52.438;13.502;2022-10-31T08:18:12;16.40;1.00
3288;DHT22;3260;52.438;13.502;2022-10-31T08:20:41;16.50;1.00
3288;DHT22;3260;52.438;13.502;2022-10-31T08:23:12;16.50;1.00
3288;DHT22;3260;52.438;13.502;2022-10-31T08:25:40;16.60;1.00
3288;DHT22;3260;52.438;13.502;2022-10-31T08:28:11;16.70;1.00
3288;DHT22;3260;52.438;13.502;2022-10-31T08:30:39;16.80;1.00
3288;DHT22;3260;52.438;13.502;2022-10-31T08:33:10;16.90;1.00
3288;DHT22;3260;52.438;13.502;2022-10-31T08:35:40;16.90;1.00
3288;DHT22;3260;52.438;13.502;2022-10-31T08:38:09;16.90;1.00
3288;DHT22;3260;52.438;13.502;2022-10-31T08:40:39;17.00;1.00
3288;DHT22;3260;52.438;13.502;2022-10-31T08:43:13;17.10;1.00
3288;DHT22;3260;52.438;13.502;2022-10-31T08:45:42;17.10;1.00
3288;DHT22;3260;52.438;13.502;2022-10-31T08:48:13;17.10;1.00
3288;DHT22;3260;52.438;13.502;2022-10-31T08:50:43;17.10;1.00
3288;DHT22;3260;52.438;13.502;2022-10-31T08:53:14;17.10;1.00
3288;DHT22;3260;52.438;13.502;2022-10-31T08:55:44;17.10;1.00
3288;DHT22;3260;52.438;13.502;2022-10-31T08:58:16;17.10;1.00
3288;DHT22;3260;52.438;13.502;2022-10-31T09:00:46;17.20;1.00
3288;DHT22;3260;52.438;13.502;2022-10-31T09:03:17;17.20;1.00
3288;DHT22;3260;52.438;13.502;2022-10-31T09:05:46;17.30;1.00
3288;DHT22;3260;52.438;13.502;2022-10-31T09:08:16;17.40;1.00
3288;DHT22;3260;52.438;13.502;2022-10-31T09:10:44;17.50;1.00
3288;DHT22;3260;52.438;13.502;2022-10-31T09:13:15;17.70;1.00
3288;DHT22;3260;52.438;13.502;2022-10-31T09:15:46;17.90;1.00
3288;DHT22;3260;52.438;13.502;2022-10-31T09:18:17;18.10;1.00
3288;DHT22;3260;52.438;13.502;2022-10-31T09:20:48;18.20;1.00
3288;DHT22;3260;52.438;13.502;2022-10-31T09:23:18;18.50;1.00
3288;DHT22;3260;52.438;13.502;2022-10-31T09:25:49;18.60;1.00
3288;DHT22;3260;52.438;13.502;2022-10-31T09:28:21;18.60;1.00
3288;DHT22;3260;52.438;13.502;2022-10-31T09:30:52;18.60;1.00
3288;DHT22;3260;52.438;13.502;2022-10-31T09:33:21;18.70;1.00
3288;DHT22;3260;52.438;13.502;2022-10-31T09:35:49;18.70;1.00
3288;DHT22;3260;52.438;13.502;2022-10-31T09:38:19;18.60;1.00
3288;DHT22;3260;52.438;13.502;2022-10-31T09:40:51;18.50;1.00
3288;DHT22;3260;52.438;13.502;2022-10-31T09:43:37;18.50;1.00
3288;DHT22;3260;52.438;13.502;2022-10-31T09:46:21;18.60;1.00
3288;DHT22;3260;52.438;13.502;2022-10-31T09:49:15;18.80;1.00
3288;DHT22;3260;52.438;13.502;2022-10-31T09:52:00;19.10;1.00
3288;DHT22;3260;52.438;13.502;2022-10-31T09:54:35;19.40;1.00
3288;DHT22;3260;52.438;13.502;2022-10-31T09:57:12;19.60;1.00
3288;DHT22;3260;52.438;13.502;2022-10-31T09:59:44;19.90;1.00
3288;DHT22;3260;52.438;13.502;2022-10-31T10:02:20;20.10;1.00
3288;DHT22;3260;52.438;13.502;2022-10-31T10:04:56;20.20;1.00
3288;DHT22;3260;52.438;13.502;2022-10-31T10:07:35;20.30;1.00
3288;DHT22;3260;52.438;13.502;2022-10-31T10:10:15;20.40;1.00
3288;DHT22;3260;52.438;13.502;2022-10-31T10:12:57;20.50;1.00
3288;DHT22;3260;52.438;13.502;2022-10-31T10:15:54;20.50;1.00
3288;DHT22;3260;52.438;13.502;2022-10-31T10:18:38;20.40;1.00
3288;DHT22;3260;52.438;13.502;2022-10-31T10:21:28;20.10;1.00
3288;DHT22;3260;52.438;13.502;2022-10-31T10:24:17;19.90;1.00
3288;DHT22;3260;52.438;13.502;2022-10-31T10:26:58;20.00;1.00
3288;DHT22;3260;52.438;13.502;2022-10-31T10:29:37;20.20;1.00
3288;DHT22;3260;52.438;13.502;2022-10-31T10:32:19;20.50;1.00
3288;DHT22;3260;52.438;13.502;2022-10-31T10:34:51;20.90;1.00
3288;DHT22;3260;52.438;13.502;2022-10-31T10:37:27;21.20;1.00
3288;DHT22;3260;52.438;13.502;2022-10-31T10:40:06;21.60;1.00
3288;DHT22;3260;52.438;13.502;2022-10-31T10:42:39;21.90;1.00
3288;DHT22;3260;52.438;13.502;2022-10-31T10:45:26;22.30;1.00
3288;DHT22;3260;52.438;13.502;2022-10-31T10:48:16;22.70;1.00
3288;DHT22;3260;52.438;13.502;2022-10-31T10:50:53;23.00;1.00
3288;DHT22;3260;52.438;13.502;2022-10-31T10:53:37;23.00;1.00
3288;DHT22;3260;52.438;13.502;2022-10-31T10:56:41;23.10;1.00
3288;DHT22;3260;52.438;13.502;2022-10-31T10:59:21;23.00;1.00
3288;DHT22;3260;52.438;13.502;2022-10-31T11:01:51;22.80;1.00
3288;DHT22;3260;52.438;13.502;2022-10-31T11:04:29;22.60;1.00
3288;DHT22;3260;52.438;13.502;2022-10-31T11:07:00;22.30;1.00
3288;DHT22;3260;52.438;13.502;2022-10-31T11:09:33;22.10;1.00
3288;DHT22;3260;52.438;13.502;2022-10-31T11:12:07;21.90;1.00
3288;DHT22;3260;52.438;13.502;2022-10-31T11:14:44;21.70;1.00
3288;DHT22;3260;52.438;13.502;2022-10-31T11:17:22;21.60;1.00
3288;DHT22;3260;52.438;13.502;2022-10-31T11:20:05;21.50;1.00
3288;DHT22;3260;52.438;13.502;2022-10-31T11:23:01;21.60;1.00
3288;DHT22;3260;52.438;13.502;2022-10-31T11:25:32;21.80;1.00
3288;DHT22;3260;52.438;13.502;2022-10-31T11:28:01;22.10;1.00
3288;DHT22;3260;52.438;13.502;2022-10-31T11:30:35;22.60;1.00
3288;DHT22;3260;52.438;13.502;2022-10-31T11:33:17;23.00;1.00
3288;DHT22;3260;52.438;13.502;2022-10-31T11:35:49;23.60;1.00
3288;DHT22;3260;52.438;13.502;2022-10-31T11:38:26;24.20;1.00
3288;DHT22;3260;52.438;13.502;2022-10-31T11:41:07;25.00;1.00
3288;DHT22;3260;52.438;13.502;2022-10-31T11:43:46;25.60;1.00
3288;DHT22;3260;52.438;13.502;2022-10-31T11:46:20;26.30;1.00
3288;DHT22;3260;52.438;13.502;2022-10-31T11:48:53;26.80;1.00
3288;DHT22;3260;52.438;13.502;2022-10-31T11:51:26;27.40;1.00
3288;DHT22;3260;52.438;13.502;2022-10-31T11:53:58;27.80;1.00
3288;DHT22;3260;52.438;13.502;2022-10-31T11:56:38;28.10;1.00
3288;DHT22;3260;52.438;13.502;2022-10-31T11:59:17;28.50;1.00
3288;DHT22;3260;52.438;13.502;2022-10-31T12:01:51;29.10;1.00
3288;DHT22;3260;52.438;13.502;2022-10-31T12:04:29;29.00;1.00
3288;DHT22;3260;52.438;13.502;2022-10-31T12:07:04;28.90;1.00
3288;DHT22;3260;52.438;13.502;2022-10-31T12:09:34;28.90;1.00
3288;DHT22;3260;52.438;13.502;2022-10-31T12:12:19;29.00;1.00
3288;DHT22;3260;52.438;13.502;2022-10-31T12:15:09;29.40;1.00
3288;DHT22;3260;52.438;13.502;2022-10-31T12:18:00;29.80;1.00
3288;DHT22;3260;52.438;13.502;2022-10-31T12:20:47;30.00;1.00
3288;DHT22;3260;52.438;13.502;2022-10-31T12:23:32;30.30;1.00
3288;DHT22;3260;52.438;13.502;2022-10-31T12:26:16;30.50;1.00
3288;DHT22;3260;52.438;13.502;2022-10-31T12:29:07;30.90;1.00
3288;DHT22;3260;52.438;13.502;2022-10-31T12:32:00;31.10;1.00
3288;DHT22;3260;52.438;13.502;2022-10-31T12:35:01;31.80;1.00
3288;DHT22;3260;52.438;13.502;2022-10-31T12:38:01;32.20;1.00
3288;DHT22;3260;52.438;13.502;2022-10-31T12:43:46;33.20;1.00
3288;DHT22;3260;52.438;13.502;2022-10-31T12:46:23;32.90;1.00
3288;DHT22;3260;52.438;13.502;2022-10-31T12:49:20;32.80;1.00
3288;DHT22;3260;52.438;13.502;2022-10-31T12:52:10;32.80;1.00
3288;DHT22;3260;52.438;13.502;2022-10-31T12:54:57;33.10;1.00
3288;DHT22;3260;52.438;13.502;2022-10-31T12:57:42;33.20;1.00
3288;DHT22;3260;52.438;13.502;2022-10-31T13:00:15;33.50;1.00
3288;DHT22;3260;52.438;13.502;2022-10-31T13:02:50;33.80;1.00
3288;DHT22;3260;52.438;13.502;2022-10-31T13:05:27;33.80;1.00
3288;DHT22;3260;52.438;13.502;2022-10-31T13:08:02;33.90;1.00
3288;DHT22;3260;52.438;13.502;2022-10-31T13:10:37;33.90;1.00
3288;DHT22;3260;52.438;13.502;2022-10-31T13:13:14;34.00;1.00
3288;DHT22;3260;52.438;13.502;2022-10-31T13:15:48;34.30;1.00
3288;DHT22;3260;52.438;13.502;2022-10-31T13:18:26;34.60;1.00
3288;DHT22;3260;52.438;13.502;2022-10-31T13:20:59;35.00;1.00
3288;DHT22;3260;52.438;13.502;2022-10-31T13:23:33;35.00;1.00
3288;DHT22;3260;52.438;13.502;2022-10-31T13:26:21;35.00;1.00
3288;DHT22;3260;52.438;13.502;2022-10-31T13:29:09;35.00;1.00
3288;DHT22;3260;52.438;13.502;2022-10-31T13:31:44;35.20;1.00
3288;DHT22;3260;52.438;13.502;2022-10-31T13:34:20;35.00;1.00
3288;DHT22;3260;52.438;13.502;2022-10-31T13:36:59;34.40;1.00
3288;DHT22;3260;52.438;13.502;2022-10-31T13:39:41;34.10;1.00
3288;DHT22;3260;52.438;13.502;2022-10-31T13:42:20;33.90;1.00
3288;DHT22;3260;52.438;13.502;2022-10-31T13:44:54;33.50;1.00
3288;DHT22;3260;52.438;13.502;2022-10-31T13:47:26;33.10;1.00
3288;DHT22;3260;52.438;13.502;2022-10-31T13:50:05;32.90;1.00
3288;DHT22;3260;52.438;13.502;2022-10-31T13:52:46;32.70;1.00
3288;DHT22;3260;52.438;13.502;2022-10-31T13:55:34;32.20;1.00
3288;DHT22;3260;52.438;13.502;2022-10-31T13:58:04;31.80;1.00
3288;DHT22;3260;52.438;13.502;2022-10-31T14:00:58;31.20;1.00
3288;DHT22;3260;52.438;13.502;2022-10-31T14:03:37;30.40;1.00
3288;DHT22;3260;52.438;13.502;2022-10-31T14:06:36;29.70;1.00
3288;DHT22;3260;52.438;13.502;2022-10-31T14:09:20;28.80;1.00
3288;DHT22;3260;52.438;13.502;2022-10-31T14:11:53;28.10;1.00
3288;DHT22;3260;52.438;13.502;2022-10-31T14:14:27;27.60;1.00
3288;DHT22;3260;52.438;13.502;2022-10-31T14:17:02;27.10;1.00
3288;DHT22;3260;52.438;13.502;2022-10-31T14:19:32;26.50;1.00
3288;DHT22;3260;52.438;13.502;2022-10-31T14:21:59;25.90;1.00
3288;DHT22;3260;52.438;13.502;2022-10-31T14:24:33;25.40;1.00
3288;DHT22;3260;52.438;13.502;2022-10-31T14:30:14;24.60;1.00
3288;DHT22;3260;52.438;13.502;2022-10-31T14:32:50;24.10;1.00
3288;DHT22;3260;52.438;13.502;2022-10-31T14:35:24;23.80;1.00
3288;DHT22;3260;52.438;13.502;2022-10-31T14:38:24;23.40;1.00
3288;DHT22;3260;52.438;13.502;2022-10-31T14:41:37;23.00;1.00
3288;DHT22;3260;52.438;13.502;2022-10-31T14:44:38;22.70;1.00
3288;DHT22;3260;52.438;13.502;2022-10-31T14:47:25;22.40;1.00
3288;DHT22;3260;52.438;13.502;2022-10-31T14:50:17;22.10;1.00
3288;DHT22;3260;52.438;13.502;2022-10-31T14:52:53;21.90;1.00
3288;DHT22;3260;52.438;13.502;2022-10-31T14:55:24;21.70;1.00
3288;DHT22;3260;52.438;13.502;2022-10-31T14:57:57;21.40;1.00
3288;DHT22;3260;52.438;13.502;2022-10-31T15:00:29;21.20;1.00
3288;DHT22;3260;52.438;13.502;2022-10-31T15:03:09;21.00;1.00
3288;DHT22;3260;52.438;13.502;2022-10-31T15:05:47;20.80;1.00
3288;DHT22;3260;52.438;13.502;2022-10-31T15:08:31;20.50;1.00
3288;DHT22;3260;52.438;13.502;2022-10-31T15:11:10;20.40;1.00
3288;DHT22;3260;52.438;13.502;2022-10-31T15:13:44;20.20;1.00
3288;DHT22;3260;52.438;13.502;2022-10-31T15:16:15;20.00;1.00
3288;DHT22;3260;52.438;13.502;2022-10-31T15:18:52;19.90;1.00
3288;DHT22;3260;52.438;13.502;2022-10-31T15:21:24;19.70;1.00
3288;DHT22;3260;52.438;13.502;2022-10-31T15:23:57;19.60;1.00
3288;DHT22;3260;52.438;13.502;2022-10-31T15:26:31;19.50;1.00
3288;DHT22;3260;52.438;13.502;2022-10-31T15:29:03;19.30;1.00
3288;DHT22;3260;52.438;13.502;2022-10-31T15:31:32;19.20;1.00
3288;DHT22;3260;52.438;13.502;2022-10-31T15:34:03;19.10;1.00
3288;DHT22;3260;52.438;13.502;2022-10-31T15:36:36;18.90;1.00
3288;DHT22;3260;52.438;13.502;2022-10-31T15:39:04;18.80;1.00
3288;DHT22;3260;52.438;13.502;2022-10-31T15:41:43;18.60;1.00
3288;DHT22;3260;52.438;13.502;2022-10-31T15:44:23;18.50;1.00
3288;DHT22;3260;52.438;13.502;2022-10-31T15:46:55;18.30;1.00
3288;DHT22;3260;52.438;13.502;2022-10-31T15:49:36;18.20;1.00
3288;DHT22;3260;52.438;13.502;2022-10-31T15:52:14;18.10;1.00
3288;DHT22;3260;52.438;13.502;2022-10-31T15:54:48;18.00;1.00
3288;DHT22;3260;52.438;13.502;2022-10-31T15:57:19;17.90;1.00
3288;DHT22;3260;52.438;13.502;2022-10-31T15:59:48;17.80;1.00
3288;DHT22;3260;52.438;13.502;2022-10-31T16:02:20;17.70;1.00
3288;DHT22;3260;52.438;13.502;2022-10-31T16:04:53;17.60;1.00
3288;DHT22;3260;52.438;13.502;2022-10-31T16:07:24;17.50;1.00
3288;DHT22;3260;52.438;13.502;2022-10-31T16:09:55;17.50;1.00
3288;DHT22;3260;52.438;13.502;2022-10-31T16:12:25;17.40;1.00
3288;DHT22;3260;52.438;13.502;2022-10-31T16:15:00;17.30;1.00
3288;DHT22;3260;52.438;13.502;2022-10-31T16:17:28;17.20;1.00
3288;DHT22;3260;52.438;13.502;2022-10-31T16:19:58;17.20;1.00
3288;DHT22;3260;52.438;13.502;2022-10-31T16:22:33;17.10;1.00
3288;DHT22;3260;52.438;13.502;2022-10-31T16:25:08;17.10;1.00
3288;DHT22;3260;52.438;13.502;2022-10-31T16:27:39;17.00;1.00
3288;DHT22;3260;52.438;13.502;2022-10-31T16:30:28;17.00;1.00
3288;DHT22;3260;52.438;13.502;2022-10-31T16:33:05;16.90;1.00
3288;DHT22;3260;52.438;13.502;2022-10-31T16:35:48;16.80;1.00
3288;DHT22;3260;52.438;13.502;2022-10-31T16:38:23;16.70;1.00
3288;DHT22;3260;52.438;13.502;2022-10-31T16:40:52;16.70;1.00
3288;DHT22;3260;52.438;13.502;2022-10-31T16:43:21;16.60;1.00
3288;DHT22;3260;52.438;13.502;2022-10-31T16:45:51;16.60;1.00
3288;DHT22;3260;52.438;13.502;2022-10-31T16:48:20;16.50;1.00
3288;DHT22;3260;52.438;13.502;2022-10-31T16:50:50;16.40;1.00
3288;DHT22;3260;52.438;13.502;2022-10-31T16:53:20;16.40;1.00
3288;DHT22;3260;52.438;13.502;2022-10-31T16:55:54;16.30;1.00
3288;DHT22;3260;52.438;13.502;2022-10-31T16:58:26;16.20;1.00
3288;DHT22;3260;52.438;13.502;2022-10-31T17:00:57;16.20;1.00
3288;DHT22;3260;52.438;13.502;2022-10-31T17:03:26;16.10;1.00
3288;DHT22;3260;52.438;13.502;2022-10-31T17:05:54;16.00;1.00
3288;DHT22;3260;52.438;13.502;2022-10-31T17:08:22;16.00;1.00
3288;DHT22;3260;52.438;13.502;2022-10-31T17:10:53;16.00;1.00
3288;DHT22;3260;52.438;13.502;2022-10-31T17:13:24;15.90;1.00
3288;DHT22;3260;52.438;13.502;2022-10-31T17:15:55;15.80;1.00
3288;DHT22;3260;52.438;13.502;2022-10-31T17:18:25;15.80;1.00
3288;DHT22;3260;52.438;13.502;2022-10-31T17:20:55;15.80;1.00
3288;DHT22;3260;52.438;13.502;2022-10-31T17:23:26;15.70;1.00
3288;DHT22;3260;52.438;13.502;2022-10-31T17:25:56;15.70;1.00
3288;DHT22;3260;52.438;13.502;2022-10-31T17:28:24;15.60;1.00
3288;DHT22;3260;52.438;13.502;2022-10-31T17:30:53;15.60;1.00
3288;DHT22;3260;52.438;13.502;2022-10-31T17:33:24;15.60;1.00
3288;DHT22;3260;52.438;13.502;2022-10-31T17:35:51;15.60;1.20
3288;DHT22;3260;52.438;13.502;2022-10-31T17:38:19;15.50;2.00
3288;DHT22;3260;52.438;13.502;2022-10-31T17:40:48;15.50;5.30
3288;DHT22;3260;52.438;13.502;2022-10-31T17:43:17;15.50;6.80
3288;DHT22;3260;52.438;13.502;2022-10-31T17:45:45;15.40;8.10
3288;DHT22;3260;52.438;13.502;2022-10-31T17:48:13;15.40;9.60
3288;DHT22;3260;52.438;13.502;2022-10-31T17:50:41;15.40;9.60
3288;DHT22;3260;52.438;13.502;2022-10-31T17:53:09;15.40;12.30
3288;DHT22;3260;52.438;13.502;2022-10-31T17:55:37;15.30;13.90
3288;DHT22;3260;52.438;13.502;2022-10-31T17:58:05;15.30;16.00
3288;DHT22;3260;52.438;13.502;2022-10-31T18:00:35;15.30;19.40
3288;DHT22;3260;52.438;13.502;2022-10-31T18:03:03;15.20;23.40
3288;DHT22;3260;52.438;13.502;2022-10-31T18:05:31;15.20;25.90
3288;DHT22;3260;52.438;13.502;2022-10-31T18:08:00;15.20;29.40
3288;DHT22;3260;52.438;13.502;2022-10-31T18:10:30;15.20;33.60
3288;DHT22;3260;52.438;13.502;2022-10-31T18:12:58;15.20;35.90
3288;DHT22;3260;52.438;13.502;2022-10-31T18:15:27;15.20;38.30
3288;DHT22;3260;52.438;13.502;2022-10-31T18:17:56;15.10;40.40
3288;DHT22;3260;52.438;13.502;2022-10-31T18:20:25;15.10;41.40
3288;DHT22;3260;52.438;13.502;2022-10-31T18:22:53;15.10;41.00
3288;DHT22;3260;52.438;13.502;2022-10-31T18:25:21;15.10;51.70
3288;DHT22;3260;52.438;13.502;2022-10-31T18:27:49;15.10;55.80
3288;DHT22;3260;52.438;13.502;2022-10-31T18:30:17;15.10;60.50
3288;DHT22;3260;52.438;13.502;2022-10-31T18:32:48;15.10;63.60
3288;DHT22;3260;52.438;13.502;2022-10-31T18:35:18;15.10;63.20
3288;DHT22;3260;52.438;13.502;2022-10-31T18:37:46;15.00;66.00
3288;DHT22;3260;52.438;13.502;2022-10-31T18:40:14;15.10;67.70
3288;DHT22;3260;52.438;13.502;2022-10-31T18:42:43;15.10;67.60
3288;DHT22;3260;52.438;13.502;2022-10-31T18:45:11;15.00;69.60
3288;DHT22;3260;52.438;13.502;2022-10-31T18:47:59;15.00;69.30
3288;DHT22;3260;52.438;13.502;2022-10-31T18:50:28;15.00;67.90
3288;DHT22;3260;52.438;13.502;2022-10-31T18:52:56;15.00;68.10
3288;DHT22;3260;52.438;13.502;2022-10-31T18:55:25;15.00;78.70
3288;DHT22;3260;52.438;13.502;2022-10-31T18:57:53;15.00;71.90
3288;DHT22;3260;52.438;13.502;2022-10-31T19:00:21;15.00;74.20
3288;DHT22;3260;52.438;13.502;2022-10-31T19:02:49;15.00;75.70
3288;DHT22;3260;52.438;13.502;2022-10-31T19:05:22;15.00;77.00
3288;DHT22;3260;52.438;13.502;2022-10-31T19:07:51;15.00;79.10
3288;DHT22;3260;52.438;13.502;2022-10-31T19:10:19;15.00;80.30
3288;DHT22;3260;52.438;13.502;2022-10-31T19:12:47;15.00;80.50
3288;DHT22;3260;52.438;13.502;2022-10-31T19:15:15;14.90;80.90
3288;DHT22;3260;52.438;13.502;2022-10-31T19:17:43;14.90;81.10
3288;DHT22;3260;52.438;13.502;2022-10-31T19:20:12;14.90;81.40
3288;DHT22;3260;52.438;13.502;2022-10-31T19:22:40;14.90;80.10
3288;DHT22;3260;52.438;13.502;2022-10-31T19:25:10;14.80;79.10
3288;DHT22;3260;52.438;13.502;2022-10-31T19:27:38;14.80;79.10
3288;DHT22;3260;52.438;13.502;2022-10-31T19:30:08;14.80;78.90
3288;DHT22;3260;52.438;13.502;2022-10-31T19:32:37;14.80;78.10
3288;DHT22;3260;52.438;13.502;2022-10-31T19:35:06;14.80;76.30
3288;DHT22;3260;52.438;13.502;2022-10-31T19:37:37;14.70;72.60
3288;DHT22;3260;52.438;13.502;2022-10-31T19:40:08;14.70;68.80
3288;DHT22;3260;52.438;13.502;2022-10-31T19:42:39;14.60;67.80
3288;DHT22;3260;52.438;13.502;2022-10-31T19:45:07;14.60;69.20
3288;DHT22;3260;52.438;13.502;2022-10-31T19:47:36;14.50;71.70
3288;DHT22;3260;52.438;13.502;2022-10-31T19:50:05;14.50;77.30
3288;DHT22;3260;52.438;13.502;2022-10-31T19:52:34;14.50;79.90
3288;DHT22;3260;52.438;13.502;2022-10-31T19:55:03;14.50;78.90
3288;DHT22;3260;52.438;13.502;2022-10-31T19:57:33;14.40;76.90
3288;DHT22;3260;52.438;13.502;2022-10-31T20:00:22;14.40;75.60
3288;DHT22;3260;52.438;13.502;2022-10-31T20:02:50;14.30;76.90
3288;DHT22;3260;52.438;13.502;2022-10-31T20:05:18;14.30;78.00
3288;DHT22;3260;52.438;13.502;2022-10-31T20:07:52;14.30;79.40
3288;DHT22;3260;52.438;13.502;2022-10-31T20:10:19;14.30;79.60
3288;DHT22;3260;52.438;13.502;2022-10-31T20:12:49;14.30;81.20
3288;DHT22;3260;52.438;13.502;2022-10-31T20:15:17;14.30;81.00
3288;DHT22;3260;52.438;13.502;2022-10-31T20:17:45;14.20;81.10
3288;DHT22;3260;52.438;13.502;2022-10-31T20:20:13;14.20;85.10
3288;DHT22;3260;52.438;13.502;2022-10-31T20:22:42;14.20;88.70
3288;DHT22;3260;52.438;13.502;2022-10-31T20:25:12;14.20;89.30
3288;DHT22;3260;52.438;13.502;2022-10-31T20:27:40;14.10;88.30
3288;DHT22;3260;52.438;13.502;2022-10-31T20:30:11;14.10;89.70
3288;DHT22;3260;52.438;13.502;2022-10-31T20:32:40;14.10;91.10
3288;DHT22;3260;52.438;13.502;2022-10-31T20:35:14;14.10;92.10
3288;DHT22;3260;52.438;13.502;2022-10-31T20:37:43;14.00;92.80
3288;DHT22;3260;52.438;13.502;2022-10-31T20:40:12;14.00;94.30
3288;DHT22;3260;52.438;13.502;2022-10-31T20:42:40;14.00;95.60
3288;DHT22;3260;52.438;13.502;2022-10-31T20:45:10;14.00;97.70
3288;DHT22;3260;52.438;13.502;2022-10-31T20:47:38;14.00;98.80
3288;DHT22;3260;52.438;13.502;2022-10-31T20:50:06;14.00;99.90
3288;DHT22;3260;52.438;13.502;2022-10-31T20:52:34;14.00;99.90
3288;DHT22;3260;52.438;13.502;2022-10-31T20:55:03;14.00;99.90
3288;DHT22;3260;52.438;13.502;2022-10-31T20:57:32;14.00;99.90
3288;DHT22;3260;52.438;13.502;2022-10-31T21:00:00;14.00;99.90
3288;DHT22;3260;52.438;13.502;2022-10-31T21:02:29;14.00;99.90
3288;DHT22;3260;52.438;13.502;2022-10-31T21:04:58;14.00;99.90
3288;DHT22;3260;52.438;13.502;2022-10-31T21:07:29;14.00;99.90
3288;DHT22;3260;52.438;13.502;2022-10-31T21:09:57;13.90;99.90
3288;DHT22;3260;52.438;13.502;2022-10-31T21:12:25;13.90;99.90
3288;DHT22;3260;52.438;13.502;2022-10-31T21:14:53;13.90;99.90
3288;DHT22;3260;52.438;13.502;2022-10-31T21:17:21;13.90;99.90
3288;DHT22;3260;52.438;13.502;2022-10-31T21:19:50;13.90;99.90
3288;DHT22;3260;52.438;13.502;2022-10-31T21:22:19;13.90;99.90
3288;DHT22;3260;52.438;13.502;2022-10-31T21:24:47;13.90;99.90
3288;DHT22;3260;52.438;13.502;2022-10-31T21:27:15;13.90;99.90
3288;DHT22;3260;52.438;13.502;2022-10-31T21:29:43;13.90;99.90
3288;DHT22;3260;52.438;13.502;2022-10-31T21:32:11;13.90;99.90
3288;DHT22;3260;52.438;13.502;2022-10-31T21:34:39;13.80;99.90
3288;DHT22;3260;52.438;13.502;2022-10-31T21:37:08;13.80;99.90
3288;DHT22;3260;52.438;13.502;2022-10-31T21:39:36;13.80;99.90
3288;DHT22;3260;52.438;13.502;2022-10-31T21:42:05;13.70;99.90